sensor_id;sensor_type;location;lat;lon;timestamp;P1;durP1;ratioP1;P2;durP2;ratioP2
20695;SDS011;10507;52.754;13.040;2023-10-19T00:00:53;15.93;;;10.23;;
20695;SDS011;10507;52.754;13.040;2023-10-19T00:03:22;18.37;;;10.23;;
20695;SDS011;10507;52.754;13.040;2023-10-19T00:05:51;17.10;;;9.73;;
20695;SDS011;10507;52.754;13.040;2023-10-19T00:08:20;17.23;;;10.53;;
20695;SDS011;10507;52.754;13.040;2023-10-19T00:10:49;15.63;;;10.23;;
20695;SDS011;10507;52.754;13.040;2023-10-19T00:13:29;15.90;;;9.43;;
20695;SDS011;10507;52.754;13.040;2023-10-19T00:15:56;15.27;;;9.70;;
20695;SDS011;10507;52.754;13.040;2023-10-19T00:18:25;18.13;;;10.43;;
20695;SDS011;10507;52.754;13.040;2023-10-19T00:20:53;14.50;;;9.80;;
20695;SDS011;10507;52.754;13.040;2023-10-19T00:23:27;14.77;;;9.90;;
20695;SDS011;10507;52.754;13.040;2023-10-19T00:25:55;17.13;;;10.63;;
20695;SDS011;10507;52.754;13.040;2023-10-19T00:28:23;14.87;;;9.53;;
20695;SDS011;10507;52.754;13.040;2023-10-19T00:30:53;17.67;;;10.70;;
20695;SDS011;10507;52.754;13.040;2023-10-19T00:33:26;15.17;;;10.17;;
20695;SDS011;10507;52.754;13.040;2023-10-19T00:35:58;17.73;;;10.30;;
20695;SDS011;10507;52.754;13.040;2023-10-19T00:38:35;16.87;;;10.33;;
20695;SDS011;10507;52.754;13.040;2023-10-19T00:41:08;16.40;;;10.20;;
20695;SDS011;10507;52.754;13.040;2023-10-19T00:43:45;17.90;;;9.50;;
20695;SDS011;10507;52.754;13.040;2023-10-19T00:46:16;17.87;;;10.00;;
20695;SDS011;10507;52.754;13.040;2023-10-19T00:48:52;17.03;;;10.53;;
20695;SDS011;10507;52.754;13.040;2023-10-19T00:51:23;15.67;;;9.20;;
20695;SDS011;10507;52.754;13.040;2023-10-19T00:54:06;14.13;;;9.40;;
20695;SDS011;10507;52.754;13.040;2023-10-19T00:56:39;16.57;;;10.17;;
20695;SDS011;10507;52.754;13.040;2023-10-19T00:59:14;16.70;;;9.87;;
20695;SDS011;10507;52.754;13.040;2023-10-19T01:01:47;14.50;;;9.23;;
20695;SDS011;10507;52.754;13.040;2023-10-19T01:04:20;16.03;;;9.97;;
20695;SDS011;10507;52.754;13.040;2023-10-19T01:06:49;17.43;;;10.40;;
20695;SDS011;10507;52.754;13.040;2023-10-19T01:09:39;15.63;;;9.50;;
20695;SDS011;10507;52.754;13.040;2023-10-19T01:12:10;19.27;;;10.17;;
20695;SDS011;10507;52.754;13.040;2023-10-19T01:15:01;14.47;;;9.37;;
20695;SDS011;10507;52.754;13.040;2023-10-19T01:17:33;14.53;;;9.77;;
20695;SDS011;10507;52.754;13.040;2023-10-19T01:20:06;15.97;;;10.30;;
20695;SDS011;10507;52.754;13.040;2023-10-19T01:22:49;18.23;;;9.83;;
20695;SDS011;10507;52.754;13.040;2023-10-19T01:25:31;14.73;;;9.47;;
20695;SDS011;10507;52.754;13.040;2023-10-19T01:28:06;15.57;;;9.70;;
20695;SDS011;10507;52.754;13.040;2023-10-19T01:30:41;19.20;;;11.33;;
20695;SDS011;10507;52.754;13.040;2023-10-19T01:33:10;16.80;;;10.20;;
20695;SDS011;10507;52.754;13.040;2023-10-19T01:35:42;16.97;;;10.20;;
20695;SDS011;10507;52.754;13.040;2023-10-19T01:38:29;16.50;;;10.03;;
20695;SDS011;10507;52.754;13.040;2023-10-19T01:40:58;15.20;;;9.90;;
20695;SDS011;10507;52.754;13.040;2023-10-19T01:43:25;15.40;;;10.20;;
20695;SDS011;10507;52.754;13.040;2023-10-19T01:45:57;16.07;;;10.03;;
20695;SDS011;10507;52.754;13.040;2023-10-19T01:48:25;17.10;;;10.30;;
20695;SDS011;10507;52.754;13.040;2023-10-19T01:51:01;17.53;;;10.60;;
20695;SDS011;10507;52.754;13.040;2023-10-19T01:53:32;15.87;;;10.40;;
20695;SDS011;10507;52.754;13.040;2023-10-19T01:56:03;15.83;;;10.30;;
20695;SDS011;10507;52.754;13.040;2023-10-19T01:58:32;18.30;;;10.70;;
20695;SDS011;10507;52.754;13.040;2023-10-19T02:01:03;19.30;;;10.67;;
20695;SDS011;10507;52.754;13.040;2023-10-19T02:03:35;15.47;;;10.17;;
20695;SDS011;10507;52.754;13.040;2023-10-19T02:06:08;22.87;;;10.87;;
20695;SDS011;10507;52.754;13.040;2023-10-19T02:08:46;19.77;;;11.40;;
20695;SDS011;10507;52.754;13.040;2023-10-19T02:11:19;17.03;;;10.80;;
20695;SDS011;10507;52.754;13.040;2023-10-19T02:13:48;18.10;;;11.33;;
20695;SDS011;10507;52.754;13.040;2023-10-19T02:16:16;17.87;;;10.67;;
20695;SDS011;10507;52.754;13.040;2023-10-19T02:18:48;16.47;;;10.63;;
20695;SDS011;10507;52.754;13.040;2023-10-19T02:21:16;15.00;;;10.30;;
20695;SDS011;10507;52.754;13.040;2023-10-19T02:23:49;17.53;;;11.23;;
20695;SDS011;10507;52.754;13.040;2023-10-19T02:26:17;16.60;;;10.10;;
20695;SDS011;10507;52.754;13.040;2023-10-19T02:28:46;16.00;;;10.47;;
20695;SDS011;10507;52.754;13.040;2023-10-19T02:31:13;19.27;;;11.53;;
20695;SDS011;10507;52.754;13.040;2023-10-19T02:33:45;16.93;;;10.77;;
20695;SDS011;10507;52.754;13.040;2023-10-19T02:36:13;17.70;;;10.67;;
20695;SDS011;10507;52.754;13.040;2023-10-19T02:38:42;18.60;;;11.00;;
20695;SDS011;10507;52.754;13.040;2023-10-19T02:41:16;19.07;;;10.63;;
20695;SDS011;10507;52.754;13.040;2023-10-19T02:43:45;14.97;;;10.60;;
20695;SDS011;10507;52.754;13.040;2023-10-19T02:46:17;18.40;;;11.60;;
20695;SDS011;10507;52.754;13.040;2023-10-19T02:48:44;16.37;;;10.90;;
20695;SDS011;10507;52.754;13.040;2023-10-19T02:51:11;18.33;;;11.90;;
20695;SDS011;10507;52.754;13.040;2023-10-19T02:53:40;17.53;;;11.47;;
20695;SDS011;10507;52.754;13.040;2023-10-19T02:56:10;18.17;;;10.70;;
20695;SDS011;10507;52.754;13.040;2023-10-19T02:58:42;16.37;;;10.97;;
20695;SDS011;10507;52.754;13.040;2023-10-19T03:01:13;18.33;;;11.17;;
20695;SDS011;10507;52.754;13.040;2023-10-19T03:03:43;16.87;;;11.63;;
20695;SDS011;10507;52.754;13.040;2023-10-19T03:06:10;20.20;;;12.03;;
20695;SDS011;10507;52.754;13.040;2023-10-19T03:08:38;18.13;;;11.27;;
20695;SDS011;10507;52.754;13.040;2023-10-19T03:11:05;16.90;;;10.57;;
20695;SDS011;10507;52.754;13.040;2023-10-19T03:13:35;18.47;;;10.83;;
20695;SDS011;10507;52.754;13.040;2023-10-19T03:16:03;18.47;;;11.73;;
20695;SDS011;10507;52.754;13.040;2023-10-19T03:18:34;19.57;;;11.13;;
20695;SDS011;10507;52.754;13.040;2023-10-19T03:21:01;18.50;;;11.50;;
20695;SDS011;10507;52.754;13.040;2023-10-19T03:23:29;16.30;;;11.10;;
20695;SDS011;10507;52.754;13.040;2023-10-19T03:26:00;20.57;;;12.60;;
20695;SDS011;10507;52.754;13.040;2023-10-19T03:28:46;20.17;;;11.30;;
20695;SDS011;10507;52.754;13.040;2023-10-19T03:31:15;17.67;;;11.23;;
20695;SDS011;10507;52.754;13.040;2023-10-19T03:33:44;17.83;;;12.17;;
20695;SDS011;10507;52.754;13.040;2023-10-19T03:36:15;21.40;;;12.13;;
20695;SDS011;10507;52.754;13.040;2023-10-19T03:38:43;20.27;;;11.67;;
20695;SDS011;10507;52.754;13.040;2023-10-19T03:41:12;18.77;;;11.87;;
20695;SDS011;10507;52.754;13.040;2023-10-19T03:43:40;16.73;;;11.10;;
20695;SDS011;10507;52.754;13.040;2023-10-19T03:46:09;18.67;;;11.83;;
20695;SDS011;10507;52.754;13.040;2023-10-19T03:48:50;18.60;;;11.63;;
20695;SDS011;10507;52.754;13.040;2023-10-19T03:51:18;18.70;;;12.10;;
20695;SDS011;10507;52.754;13.040;2023-10-19T03:53:51;20.77;;;12.03;;
20695;SDS011;10507;52.754;13.040;2023-10-19T03:56:21;21.13;;;12.63;;
20695;SDS011;10507;52.754;13.040;2023-10-19T03:58:50;18.37;;;12.20;;
20695;SDS011;10507;52.754;13.040;2023-10-19T04:01:18;20.77;;;12.33;;
20695;SDS011;10507;52.754;13.040;2023-10-19T04:03:47;19.77;;;12.47;;
20695;SDS011;10507;52.754;13.040;2023-10-19T04:06:19;20.93;;;13.17;;
20695;SDS011;10507;52.754;13.040;2023-10-19T04:08:47;21.10;;;13.00;;
20695;SDS011;10507;52.754;13.040;2023-10-19T04:11:17;22.30;;;13.07;;
20695;SDS011;10507;52.754;13.040;2023-10-19T04:13:59;21.80;;;12.90;;
20695;SDS011;10507;52.754;13.040;2023-10-19T04:16:30;21.20;;;12.93;;
20695;SDS011;10507;52.754;13.040;2023-10-19T04:19:02;23.50;;;12.83;;
20695;SDS011;10507;52.754;13.040;2023-10-19T04:21:33;24.50;;;13.97;;
20695;SDS011;10507;52.754;13.040;2023-10-19T04:24:05;22.63;;;13.20;;
20695;SDS011;10507;52.754;13.040;2023-10-19T04:26:33;20.40;;;12.77;;
20695;SDS011;10507;52.754;13.040;2023-10-19T04:29:03;23.63;;;13.50;;
20695;SDS011;10507;52.754;13.040;2023-10-19T04:31:36;22.77;;;13.30;;
20695;SDS011;10507;52.754;13.040;2023-10-19T04:34:09;22.73;;;13.50;;
20695;SDS011;10507;52.754;13.040;2023-10-19T04:36:38;20.97;;;12.30;;
20695;SDS011;10507;52.754;13.040;2023-10-19T04:39:06;24.43;;;14.13;;
20695;SDS011;10507;52.754;13.040;2023-10-19T04:41:40;22.63;;;12.90;;
20695;SDS011;10507;52.754;13.040;2023-10-19T04:44:10;19.27;;;12.13;;
20695;SDS011;10507;52.754;13.040;2023-10-19T04:46:38;23.17;;;13.63;;
20695;SDS011;10507;52.754;13.040;2023-10-19T04:49:06;20.40;;;13.13;;
20695;SDS011;10507;52.754;13.040;2023-10-19T04:51:35;21.87;;;14.20;;
20695;SDS011;10507;52.754;13.040;2023-10-19T04:54:06;20.90;;;13.90;;
20695;SDS011;10507;52.754;13.040;2023-10-19T04:56:35;24.47;;;14.00;;
20695;SDS011;10507;52.754;13.040;2023-10-19T04:59:03;19.50;;;12.20;;
20695;SDS011;10507;52.754;13.040;2023-10-19T05:01:32;21.67;;;13.17;;
20695;SDS011;10507;52.754;13.040;2023-10-19T05:04:00;21.60;;;12.97;;
20695;SDS011;10507;52.754;13.040;2023-10-19T05:06:28;21.17;;;12.70;;
20695;SDS011;10507;52.754;13.040;2023-10-19T05:08:56;22.57;;;13.37;;
20695;SDS011;10507;52.754;13.040;2023-10-19T05:11:26;19.40;;;13.43;;
20695;SDS011;10507;52.754;13.040;2023-10-19T05:13:54;23.60;;;13.70;;
20695;SDS011;10507;52.754;13.040;2023-10-19T05:16:22;21.50;;;13.50;;
20695;SDS011;10507;52.754;13.040;2023-10-19T05:18:50;22.10;;;13.60;;
20695;SDS011;10507;52.754;13.040;2023-10-19T05:21:18;22.73;;;13.60;;
20695;SDS011;10507;52.754;13.040;2023-10-19T05:23:46;24.70;;;13.83;;
20695;SDS011;10507;52.754;13.040;2023-10-19T05:26:14;21.47;;;12.73;;
20695;SDS011;10507;52.754;13.040;2023-10-19T05:28:43;20.87;;;13.27;;
20695;SDS011;10507;52.754;13.040;2023-10-19T05:31:11;20.80;;;13.60;;
20695;SDS011;10507;52.754;13.040;2023-10-19T05:33:39;21.40;;;13.40;;
20695;SDS011;10507;52.754;13.040;2023-10-19T05:36:07;22.60;;;14.17;;
20695;SDS011;10507;52.754;13.040;2023-10-19T05:38:35;24.77;;;15.03;;
20695;SDS011;10507;52.754;13.040;2023-10-19T05:41:03;22.73;;;14.67;;
20695;SDS011;10507;52.754;13.040;2023-10-19T05:43:31;25.87;;;14.47;;
20695;SDS011;10507;52.754;13.040;2023-10-19T05:46:02;22.93;;;13.83;;
20695;SDS011;10507;52.754;13.040;2023-10-19T05:48:31;25.67;;;14.90;;
20695;SDS011;10507;52.754;13.040;2023-10-19T05:50:58;23.03;;;14.77;;
20695;SDS011;10507;52.754;13.040;2023-10-19T05:53:26;25.63;;;16.03;;
20695;SDS011;10507;52.754;13.040;2023-10-19T05:55:56;27.17;;;14.97;;
20695;SDS011;10507;52.754;13.040;2023-10-19T05:58:24;26.57;;;15.73;;
20695;SDS011;10507;52.754;13.040;2023-10-19T06:00:52;26.20;;;15.60;;
20695;SDS011;10507;52.754;13.040;2023-10-19T06:03:21;25.87;;;15.70;;
20695;SDS011;10507;52.754;13.040;2023-10-19T06:05:49;25.27;;;15.40;;
20695;SDS011;10507;52.754;13.040;2023-10-19T06:08:20;26.57;;;16.40;;
20695;SDS011;10507;52.754;13.040;2023-10-19T06:10:50;27.87;;;16.97;;
20695;SDS011;10507;52.754;13.040;2023-10-19T06:13:19;32.60;;;16.73;;
20695;SDS011;10507;52.754;13.040;2023-10-19T06:15:48;26.20;;;16.80;;
20695;SDS011;10507;52.754;13.040;2023-10-19T06:18:17;28.60;;;17.10;;
20695;SDS011;10507;52.754;13.040;2023-10-19T06:20:46;25.17;;;16.50;;
20695;SDS011;10507;52.754;13.040;2023-10-19T06:23:16;32.20;;;16.53;;
20695;SDS011;10507;52.754;13.040;2023-10-19T06:25:44;26.17;;;16.43;;
20695;SDS011;10507;52.754;13.040;2023-10-19T06:28:13;25.37;;;17.13;;
20695;SDS011;10507;52.754;13.040;2023-10-19T06:30:41;26.47;;;16.53;;
20695;SDS011;10507;52.754;13.040;2023-10-19T06:33:10;26.80;;;15.80;;
20695;SDS011;10507;52.754;13.040;2023-10-19T06:35:38;27.60;;;16.13;;
20695;SDS011;10507;52.754;13.040;2023-10-19T06:38:08;30.20;;;17.63;;
20695;SDS011;10507;52.754;13.040;2023-10-19T06:40:36;28.37;;;18.30;;
20695;SDS011;10507;52.754;13.040;2023-10-19T06:43:04;28.47;;;17.20;;
20695;SDS011;10507;52.754;13.040;2023-10-19T06:45:32;27.97;;;16.80;;
20695;SDS011;10507;52.754;13.040;2023-10-19T06:48:00;25.67;;;15.77;;
20695;SDS011;10507;52.754;13.040;2023-10-19T06:50:28;27.13;;;17.00;;
20695;SDS011;10507;52.754;13.040;2023-10-19T06:52:57;29.20;;;17.43;;
20695;SDS011;10507;52.754;13.040;2023-10-19T06:55:27;27.53;;;17.07;;
20695;SDS011;10507;52.754;13.040;2023-10-19T06:57:55;26.30;;;16.77;;
20695;SDS011;10507;52.754;13.040;2023-10-19T07:00:23;28.90;;;16.60;;
20695;SDS011;10507;52.754;13.040;2023-10-19T07:02:54;25.80;;;17.57;;
20695;SDS011;10507;52.754;13.040;2023-10-19T07:05:23;28.20;;;17.80;;
20695;SDS011;10507;52.754;13.040;2023-10-19T07:07:52;27.73;;;17.90;;
20695;SDS011;10507;52.754;13.040;2023-10-19T07:10:21;29.50;;;17.67;;
20695;SDS011;10507;52.754;13.040;2023-10-19T07:12:52;29.80;;;17.50;;
20695;SDS011;10507;52.754;13.040;2023-10-19T07:15:21;29.17;;;17.67;;
20695;SDS011;10507;52.754;13.040;2023-10-19T07:17:51;29.47;;;17.20;;
20695;SDS011;10507;52.754;13.040;2023-10-19T07:20:20;28.70;;;16.60;;
20695;SDS011;10507;52.754;13.040;2023-10-19T07:22:58;24.80;;;16.53;;
20695;SDS011;10507;52.754;13.040;2023-10-19T07:25:33;25.40;;;16.73;;
20695;SDS011;10507;52.754;13.040;2023-10-19T07:28:11;27.27;;;16.97;;
20695;SDS011;10507;52.754;13.040;2023-10-19T07:30:40;25.20;;;16.90;;
20695;SDS011;10507;52.754;13.040;2023-10-19T07:33:09;27.10;;;16.07;;
20695;SDS011;10507;52.754;13.040;2023-10-19T07:35:37;28.27;;;16.90;;
20695;SDS011;10507;52.754;13.040;2023-10-19T07:38:05;26.43;;;16.30;;
20695;SDS011;10507;52.754;13.040;2023-10-19T07:40:34;28.07;;;16.53;;
20695;SDS011;10507;52.754;13.040;2023-10-19T07:43:02;29.80;;;17.83;;
20695;SDS011;10507;52.754;13.040;2023-10-19T07:45:32;24.67;;;16.23;;
20695;SDS011;10507;52.754;13.040;2023-10-19T07:48:01;25.70;;;16.43;;
20695;SDS011;10507;52.754;13.040;2023-10-19T07:50:33;27.93;;;15.37;;
20695;SDS011;10507;52.754;13.040;2023-10-19T07:53:01;27.53;;;17.10;;
20695;SDS011;10507;52.754;13.040;2023-10-19T07:55:30;26.17;;;16.57;;
20695;SDS011;10507;52.754;13.040;2023-10-19T07:57:59;24.37;;;15.70;;
20695;SDS011;10507;52.754;13.040;2023-10-19T08:00:28;26.00;;;15.60;;
20695;SDS011;10507;52.754;13.040;2023-10-19T08:02:58;26.67;;;15.33;;
20695;SDS011;10507;52.754;13.040;2023-10-19T08:05:26;27.80;;;16.00;;
20695;SDS011;10507;52.754;13.040;2023-10-19T08:07:54;26.43;;;16.00;;
20695;SDS011;10507;52.754;13.040;2023-10-19T08:10:23;27.53;;;16.20;;
20695;SDS011;10507;52.754;13.040;2023-10-19T08:12:53;26.83;;;16.20;;
20695;SDS011;10507;52.754;13.040;2023-10-19T08:15:21;25.67;;;15.77;;
20695;SDS011;10507;52.754;13.040;2023-10-19T08:17:50;25.07;;;15.30;;
20695;SDS011;10507;52.754;13.040;2023-10-19T08:20:21;31.33;;;16.30;;
20695;SDS011;10507;52.754;13.040;2023-10-19T08:22:58;26.63;;;16.50;;
20695;SDS011;10507;52.754;13.040;2023-10-19T08:25:28;28.77;;;17.47;;
20695;SDS011;10507;52.754;13.040;2023-10-19T08:28:16;24.17;;;15.37;;
20695;SDS011;10507;52.754;13.040;2023-10-19T08:30:44;26.63;;;16.43;;
20695;SDS011;10507;52.754;13.040;2023-10-19T08:33:23;23.67;;;15.57;;
20695;SDS011;10507;52.754;13.040;2023-10-19T08:35:53;26.07;;;15.33;;
20695;SDS011;10507;52.754;13.040;2023-10-19T08:38:23;25.93;;;15.73;;
20695;SDS011;10507;52.754;13.040;2023-10-19T08:40:51;24.60;;;14.97;;
20695;SDS011;10507;52.754;13.040;2023-10-19T08:43:21;23.50;;;15.43;;
20695;SDS011;10507;52.754;13.040;2023-10-19T08:45:50;23.53;;;16.00;;
20695;SDS011;10507;52.754;13.040;2023-10-19T08:48:18;25.23;;;15.97;;
20695;SDS011;10507;52.754;13.040;2023-10-19T08:50:45;22.30;;;15.10;;
20695;SDS011;10507;52.754;13.040;2023-10-19T08:53:16;23.10;;;15.80;;
20695;SDS011;10507;52.754;13.040;2023-10-19T08:55:47;26.57;;;15.80;;
20695;SDS011;10507;52.754;13.040;2023-10-19T08:58:17;24.30;;;15.77;;
20695;SDS011;10507;52.754;13.040;2023-10-19T09:00:46;25.80;;;15.97;;
20695;SDS011;10507;52.754;13.040;2023-10-19T09:03:16;25.43;;;15.27;;
20695;SDS011;10507;52.754;13.040;2023-10-19T09:05:44;24.50;;;15.87;;
20695;SDS011;10507;52.754;13.040;2023-10-19T09:08:14;24.23;;;15.40;;
20695;SDS011;10507;52.754;13.040;2023-10-19T09:10:45;24.20;;;15.27;;
20695;SDS011;10507;52.754;13.040;2023-10-19T09:13:13;23.93;;;15.17;;
20695;SDS011;10507;52.754;13.040;2023-10-19T09:15:45;26.57;;;16.17;;
20695;SDS011;10507;52.754;13.040;2023-10-19T09:18:13;26.57;;;16.30;;
20695;SDS011;10507;52.754;13.040;2023-10-19T09:20:41;26.97;;;15.83;;
20695;SDS011;10507;52.754;13.040;2023-10-19T09:23:23;22.77;;;15.93;;
20695;SDS011;10507;52.754;13.040;2023-10-19T09:25:56;25.80;;;14.90;;
20695;SDS011;10507;52.754;13.040;2023-10-19T09:28:24;24.53;;;15.83;;
20695;SDS011;10507;52.754;13.040;2023-10-19T09:30:52;23.93;;;14.97;;
20695;SDS011;10507;52.754;13.040;2023-10-19T09:33:21;24.10;;;15.10;;
20695;SDS011;10507;52.754;13.040;2023-10-19T09:35:50;24.80;;;15.33;;
20695;SDS011;10507;52.754;13.040;2023-10-19T09:38:19;27.70;;;15.63;;
20695;SDS011;10507;52.754;13.040;2023-10-19T09:40:50;28.30;;;16.57;;
20695;SDS011;10507;52.754;13.040;2023-10-19T09:43:21;24.30;;;15.87;;
20695;SDS011;10507;52.754;13.040;2023-10-19T09:45:53;27.87;;;15.57;;
20695;SDS011;10507;52.754;13.040;2023-10-19T09:48:26;25.03;;;15.30;;
20695;SDS011;10507;52.754;13.040;2023-10-19T09:50:55;26.10;;;15.20;;
20695;SDS011;10507;52.754;13.040;2023-10-19T09:53:25;25.10;;;15.27;;
20695;SDS011;10507;52.754;13.040;2023-10-19T09:55:56;23.40;;;14.77;;
20695;SDS011;10507;52.754;13.040;2023-10-19T09:58:27;26.70;;;15.73;;
20695;SDS011;10507;52.754;13.040;2023-10-19T10:01:01;24.17;;;15.37;;
20695;SDS011;10507;52.754;13.040;2023-10-19T10:03:42;23.00;;;14.63;;
20695;SDS011;10507;52.754;13.040;2023-10-19T10:06:11;26.10;;;15.47;;
20695;SDS011;10507;52.754;13.040;2023-10-19T10:08:40;21.97;;;14.53;;
20695;SDS011;10507;52.754;13.040;2023-10-19T10:11:15;25.20;;;14.77;;
20695;SDS011;10507;52.754;13.040;2023-10-19T10:13:45;21.03;;;14.50;;
20695;SDS011;10507;52.754;13.040;2023-10-19T10:16:18;24.97;;;15.87;;
20695;SDS011;10507;52.754;13.040;2023-10-19T10:18:47;24.37;;;15.17;;
20695;SDS011;10507;52.754;13.040;2023-10-19T10:21:17;23.30;;;14.57;;
20695;SDS011;10507;52.754;13.040;2023-10-19T10:23:47;22.93;;;15.30;;
20695;SDS011;10507;52.754;13.040;2023-10-19T10:26:18;22.93;;;14.57;;
20695;SDS011;10507;52.754;13.040;2023-10-19T10:31:41;23.47;;;15.00;;
20695;SDS011;10507;52.754;13.040;2023-10-19T10:34:12;25.90;;;15.13;;
20695;SDS011;10507;52.754;13.040;2023-10-19T10:37:11;21.73;;;14.60;;
20695;SDS011;10507;52.754;13.040;2023-10-19T10:39:40;20.55;;;13.93;;
20695;SDS011;10507;52.754;13.040;2023-10-19T10:42:13;23.50;;;15.03;;
20695;SDS011;10507;52.754;13.040;2023-10-19T10:44:42;24.75;;;15.95;;
20695;SDS011;10507;52.754;13.040;2023-10-19T10:47:11;23.67;;;15.15;;
20695;SDS011;10507;52.754;13.040;2023-10-19T10:49:47;23.73;;;14.80;;
20695;SDS011;10507;52.754;13.040;2023-10-19T10:52:26;26.23;;;15.70;;
20695;SDS011;10507;52.754;13.040;2023-10-19T10:54:56;22.40;;;14.70;;
20695;SDS011;10507;52.754;13.040;2023-10-19T10:57:28;21.75;;;14.43;;
20695;SDS011;10507;52.754;13.040;2023-10-19T11:00:02;25.63;;;15.57;;
20695;SDS011;10507;52.754;13.040;2023-10-19T11:02:34;23.08;;;14.18;;
20695;SDS011;10507;52.754;13.040;2023-10-19T11:05:02;22.17;;;14.35;;
20695;SDS011;10507;52.754;13.040;2023-10-19T11:07:31;23.05;;;14.18;;
20695;SDS011;10507;52.754;13.040;2023-10-19T11:09:59;24.48;;;16.00;;
20695;SDS011;10507;52.754;13.040;2023-10-19T11:12:29;24.23;;;15.37;;
20695;SDS011;10507;52.754;13.040;2023-10-19T11:14:57;23.63;;;15.57;;
20695;SDS011;10507;52.754;13.040;2023-10-19T11:17:27;21.63;;;14.32;;
20695;SDS011;10507;52.754;13.040;2023-10-19T11:19:58;24.87;;;14.97;;
20695;SDS011;10507;52.754;13.040;2023-10-19T11:22:26;25.60;;;15.77;;
20695;SDS011;10507;52.754;13.040;2023-10-19T11:24:54;27.43;;;15.13;;
20695;SDS011;10507;52.754;13.040;2023-10-19T11:27:23;23.73;;;15.27;;
20695;SDS011;10507;52.754;13.040;2023-10-19T11:29:57;27.80;;;15.60;;
20695;SDS011;10507;52.754;13.040;2023-10-19T11:32:25;25.53;;;14.90;;
20695;SDS011;10507;52.754;13.040;2023-10-19T11:34:53;26.43;;;16.73;;
20695;SDS011;10507;52.754;13.040;2023-10-19T11:37:22;25.47;;;15.97;;
20695;SDS011;10507;52.754;13.040;2023-10-19T11:39:50;26.47;;;16.43;;
20695;SDS011;10507;52.754;13.040;2023-10-19T11:42:18;24.33;;;15.73;;
20695;SDS011;10507;52.754;13.040;2023-10-19T11:44:46;25.33;;;15.93;;
20695;SDS011;10507;52.754;13.040;2023-10-19T11:47:15;26.03;;;15.17;;
20695;SDS011;10507;52.754;13.040;2023-10-19T11:49:43;23.97;;;16.17;;
20695;SDS011;10507;52.754;13.040;2023-10-19T11:52:11;23.60;;;15.43;;
20695;SDS011;10507;52.754;13.040;2023-10-19T11:54:39;24.43;;;16.47;;
20695;SDS011;10507;52.754;13.040;2023-10-19T11:57:08;26.00;;;16.83;;
20695;SDS011;10507;52.754;13.040;2023-10-19T11:59:36;30.77;;;17.83;;
20695;SDS011;10507;52.754;13.040;2023-10-19T12:02:04;29.00;;;17.47;;
20695;SDS011;10507;52.754;13.040;2023-10-19T12:04:34;28.60;;;17.30;;
20695;SDS011;10507;52.754;13.040;2023-10-19T12:07:02;32.13;;;18.13;;
20695;SDS011;10507;52.754;13.040;2023-10-19T12:09:31;27.10;;;16.97;;
20695;SDS011;10507;52.754;13.040;2023-10-19T12:11:59;32.67;;;17.57;;
20695;SDS011;10507;52.754;13.040;2023-10-19T12:14:29;24.93;;;17.80;;
20695;SDS011;10507;52.754;13.040;2023-10-19T12:16:59;30.20;;;19.40;;
20695;SDS011;10507;52.754;13.040;2023-10-19T12:19:29;27.97;;;18.07;;
20695;SDS011;10507;52.754;13.040;2023-10-19T12:21:59;28.07;;;17.87;;
20695;SDS011;10507;52.754;13.040;2023-10-19T12:24:28;31.70;;;18.73;;
20695;SDS011;10507;52.754;13.040;2023-10-19T12:26:57;31.53;;;18.87;;
20695;SDS011;10507;52.754;13.040;2023-10-19T12:29:25;28.87;;;17.83;;
20695;SDS011;10507;52.754;13.040;2023-10-19T12:31:52;27.23;;;17.93;;
20695;SDS011;10507;52.754;13.040;2023-10-19T12:34:20;26.00;;;18.03;;
20695;SDS011;10507;52.754;13.040;2023-10-19T12:36:49;30.40;;;18.57;;
20695;SDS011;10507;52.754;13.040;2023-10-19T12:39:20;27.40;;;18.37;;
20695;SDS011;10507;52.754;13.040;2023-10-19T12:42:13;26.83;;;17.77;;
20695;SDS011;10507;52.754;13.040;2023-10-19T12:44:41;28.90;;;19.00;;
20695;SDS011;10507;52.754;13.040;2023-10-19T12:47:13;29.67;;;18.67;;
20695;SDS011;10507;52.754;13.040;2023-10-19T12:49:42;28.20;;;18.37;;
20695;SDS011;10507;52.754;13.040;2023-10-19T12:52:11;32.27;;;19.43;;
20695;SDS011;10507;52.754;13.040;2023-10-19T12:54:40;30.23;;;18.47;;
20695;SDS011;10507;52.754;13.040;2023-10-19T12:57:11;27.27;;;18.80;;
20695;SDS011;10507;52.754;13.040;2023-10-19T12:59:41;27.63;;;18.47;;
20695;SDS011;10507;52.754;13.040;2023-10-19T13:02:10;30.00;;;17.80;;
20695;SDS011;10507;52.754;13.040;2023-10-19T13:04:41;28.13;;;19.03;;
20695;SDS011;10507;52.754;13.040;2023-10-19T13:07:13;30.37;;;19.73;;
20695;SDS011;10507;52.754;13.040;2023-10-19T13:09:40;31.70;;;19.20;;
20695;SDS011;10507;52.754;13.040;2023-10-19T13:12:10;37.67;;;20.57;;
20695;SDS011;10507;52.754;13.040;2023-10-19T13:14:40;30.90;;;19.27;;
20695;SDS011;10507;52.754;13.040;2023-10-19T13:17:10;30.07;;;19.30;;
20695;SDS011;10507;52.754;13.040;2023-10-19T13:19:38;29.33;;;19.50;;
20695;SDS011;10507;52.754;13.040;2023-10-19T13:22:06;33.03;;;19.47;;
20695;SDS011;10507;52.754;13.040;2023-10-19T13:24:34;29.70;;;19.10;;
20695;SDS011;10507;52.754;13.040;2023-10-19T13:27:07;31.87;;;20.23;;
20695;SDS011;10507;52.754;13.040;2023-10-19T13:29:35;30.93;;;19.43;;
20695;SDS011;10507;52.754;13.040;2023-10-19T13:32:09;31.80;;;19.57;;
20695;SDS011;10507;52.754;13.040;2023-10-19T13:34:37;31.60;;;20.17;;
20695;SDS011;10507;52.754;13.040;2023-10-19T13:37:07;30.27;;;20.47;;
20695;SDS011;10507;52.754;13.040;2023-10-19T13:39:35;32.27;;;19.87;;
20695;SDS011;10507;52.754;13.040;2023-10-19T13:42:03;28.17;;;19.10;;
20695;SDS011;10507;52.754;13.040;2023-10-19T13:44:32;31.37;;;20.33;;
20695;SDS011;10507;52.754;13.040;2023-10-19T13:47:00;31.33;;;18.80;;
20695;SDS011;10507;52.754;13.040;2023-10-19T13:49:33;30.47;;;19.40;;
20695;SDS011;10507;52.754;13.040;2023-10-19T13:52:01;29.23;;;19.20;;
20695;SDS011;10507;52.754;13.040;2023-10-19T13:54:30;28.97;;;18.80;;
20695;SDS011;10507;52.754;13.040;2023-10-19T13:56:59;30.77;;;20.00;;
20695;SDS011;10507;52.754;13.040;2023-10-19T13:59:28;32.00;;;19.83;;
20695;SDS011;10507;52.754;13.040;2023-10-19T14:01:56;28.13;;;19.40;;
20695;SDS011;10507;52.754;13.040;2023-10-19T14:04:25;30.13;;;19.00;;
20695;SDS011;10507;52.754;13.040;2023-10-19T14:06:54;30.83;;;19.93;;
20695;SDS011;10507;52.754;13.040;2023-10-19T14:09:23;27.33;;;18.50;;
20695;SDS011;10507;52.754;13.040;2023-10-19T14:11:52;30.33;;;18.70;;
20695;SDS011;10507;52.754;13.040;2023-10-19T14:14:20;30.83;;;19.37;;
20695;SDS011;10507;52.754;13.040;2023-10-19T14:16:48;30.43;;;18.80;;
20695;SDS011;10507;52.754;13.040;2023-10-19T14:19:16;28.00;;;19.00;;
20695;SDS011;10507;52.754;13.040;2023-10-19T14:21:45;31.20;;;19.77;;
20695;SDS011;10507;52.754;13.040;2023-10-19T14:24:15;32.20;;;19.77;;
20695;SDS011;10507;52.754;13.040;2023-10-19T14:26:44;28.87;;;19.53;;
20695;SDS011;10507;52.754;13.040;2023-10-19T14:29:12;33.97;;;19.53;;